KD8KZG-1 Weather Reports


Display with metric or nautical units.
time (UTC)temp
F
wind
direction
speed
MPH
gust
MPH
rain 1hr
in
rain 24hr
in
rain mn
in
humidity
%
barometer
mb
20201023052801 58 139 5.0 7.0 0.00 0.00 0.00 86 1017.0
20201023051256 58 158 2.0 5.0 0.00 0.00 0.00 86 1017.0
20201023050338 59 124 3.0 6.0 0.00 0.00 0.00 85 1017.0
20201023045757 59 124 3.0 6.0 0.00 0.00 0.00 85 1017.0
20201023044710 59 149 3.0 6.0 0.00 0.00 0.00 85 1017.3
20201023044256 59 149 3.0 6.0 0.00 0.00 0.00 85 1017.3
20201023043145 59 113 1.0 6.0 0.00 0.00 0.00 85 1017.7
20201023042858 59 113 1.0 6.0 0.00 0.00 0.00 85 1017.7
20201023042755 59 113 1.0 6.0 0.00 0.00 0.00 85 1017.7
20201023041340 60 131 1.0 5.0 0.00 0.00 0.00 84 1017.7
20201023041259 60 131 1.0 5.0 0.00 0.00 0.00 84 1017.7
20201023035757 60 187 3.0 6.0 0.00 0.01 0.00 83 1017.7
20201023034257 61 165 0.0 6.0 0.00 0.01 0.00 83 1018.0
20201023032911 61 105 0.0 0.0 0.00 0.01 0.00 82 1018.0
20201023032759 61 105 0.0 0.0 0.00 0.01 0.00 82 1018.0
20201023031300 62 105 0.0 0.0 0.00 0.01 0.00 81 1018.0
20201023025802 62 105 0.0 0.0 0.00 0.01 0.00 80 1018.3
20201023024257 63 105 0.0 0.0 0.00 0.01 0.00 79 1018.7
20201023023102 63 105 0.0 0.0 0.00 0.01 0.00 77 1018.7
20201023022757 63 105 0.0 0.0 0.00 0.01 0.00 77 1018.7
20201023021541 64 105 0.0 0.0 0.00 0.01 0.00 76 1018.7
20201023021257 64 105 0.0 0.0 0.00 0.01 0.00 76 1018.7
20201023015757 64 105 0.0 0.0 0.00 0.01 0.00 74 1018.7
20201023014256 65 105 0.0 0.0 0.00 0.01 0.00 73 1019.0
20201023012756 65 105 0.0 0.0 0.00 0.01 0.00 71 1018.7
20201023011610 66 105 0.0 0.0 0.00 0.01 0.00 70 1019.0
20201023011256 66 105 0.0 0.0 0.00 0.01 0.00 70 1019.0
20201023004257 67 177 3.0 4.0 0.00 0.01 0.00 67 1018.7
20201023002756 67 124 0.0 3.0 0.00 0.01 0.00 65 1018.7
20201023001256 68 117 0.0 4.0 0.00 0.01 0.00 63 1018.7
20201022235757 69 120 2.0 5.0 0.00 0.01 0.00 61 1018.7
20201022234301 71 179 0.0 0.0 0.00 0.01 0.00 57 1018.7
20201022232759 72 179 0.0 0.0 0.00 0.01 0.00 54 1018.7
20201022231256 74 179 0.0 0.0 0.00 0.01 0.00 51 1018.7
20201022225759 76 179 0.0 0.0 0.00 0.01 0.00 47 1018.3
20201022224255 79 179 0.0 0.0 0.00 0.01 0.00 42 1018.7
20201022222756 81 179 0.0 0.0 0.00 0.01 0.00 39 1018.7
20201022221921 81 190 0.0 0.0 0.00 0.01 0.00 39 1018.7
20201022221258 81 190 0.0 0.0 0.00 0.01 0.00 39 1018.7
20201022215758 81 193 0.0 2.0 0.00 0.01 0.00 40 1018.7
20201022214258 80 194 2.0 7.0 0.00 0.01 0.00 40 1018.7
20201022212757 80 183 0.0 3.0 0.00 0.01 0.00 41 1018.7
20201022211614 80 259 1.0 6.0 0.00 0.01 0.00 41 1018.7
20201022211259 80 259 1.0 6.0 0.00 0.01 0.00 41 1018.7
20201022205800 80 201 3.0 9.0 0.00 0.01 0.00 39 1018.7
20201022204629 80 246 3.0 8.0 0.00 0.01 0.00 40 1018.7
20201022204257 80 246 3.0 8.0 0.00 0.01 0.00 40 1018.7
20201022202757 80 218 6.0 9.0 0.00 0.01 0.00 39 1018.7
20201022201258 80 208 5.0 8.0 0.00 0.01 0.00 38 1018.7
20201022195757 79 198 1.0 5.0 0.00 0.01 0.00 44 1018.7
20201022194259 79 212 1.0 11.0 0.00 0.01 0.00 43 1018.7
20201022192758 79 267 3.0 5.0 0.00 0.01 0.00 44 1018.7
20201022191259 79 229 1.0 8.0 0.00 0.01 0.00 44 1019.0
20201022184258 80 248 2.0 8.0 0.00 0.01 0.00 41 1019.0
20201022183101 80 217 3.0 10.0 0.00 0.01 0.00 41 1019.3
20201022182759 80 217 3.0 10.0 0.00 0.01 0.00 41 1019.3
20201022182232 80 174 3.0 11.0 0.00 0.01 0.00 43 1019.3
20201022175757 79 285 4.0 7.0 0.00 0.01 0.00 46 1019.7
20201022174258 78 307 4.0 10.0 0.00 0.01 0.00 46 1019.7
20201022172756 78 187 3.0 9.0 0.00 0.01 0.00 49 1020.0
20201022171255 78 148 5.0 7.0 0.00 0.01 0.00 49 1020.4
20201022165800 77 294 3.0 7.0 0.00 0.01 0.00 50 1020.7
20201022164256 76 208 3.0 9.0 0.00 0.01 0.00 52 1020.7
20201022162754 76 287 2.0 8.0 0.00 0.01 0.00 51 1021.0
20201022161258 75 242 2.0 8.0 0.00 0.01 0.00 56 1021.0
20201022155759 74 177 4.0 9.0 0.00 0.01 0.00 57 1021.4
20201022154303 73 249 2.0 7.0 0.00 0.01 0.00 63 1021.4
20201022152757 71 167 3.0 6.0 0.00 0.01 0.00 69 1021.4
20201022151257 69 184 5.0 7.0 0.00 0.01 0.00 75 1021.4
20201022145758 67 197 4.0 5.0 0.00 0.01 0.00 80 1021.4
20201022144258 65 160 2.0 6.0 0.00 0.01 0.00 84 1021.4
20201022142831 64 179 5.0 7.0 0.00 0.01 0.00 91 1021.7
20201022142757 64 179 5.0 7.0 0.00 0.01 0.00 91 1021.7
20201022141549 62 176 3.0 5.0 0.00 0.01 0.00 93 1021.7
20201022141258 62 176 3.0 5.0 0.00 0.01 0.00 93 1021.7
20201022134257 60 153 1.0 3.0 0.00 0.01 0.00 94 1021.7
20201022131651 57 162 0.0 1.0 0.00 0.01 0.00 94 1021.4
20201022131258 57 162 0.0 1.0 0.00 0.01 0.00 94 1021.4
20201022130045 56 156 0.0 3.0 0.00 0.01 0.00 94 1021.0
20201022125757 56 156 0.0 3.0 0.00 0.01 0.00 94 1021.0
20201022124259 55 134 0.0 4.0 0.00 0.01 0.00 94 1021.0
20201022123241 55 125 0.0 0.0 0.00 0.01 0.00 94 1020.7
20201022122756 55 125 0.0 0.0 0.00 0.01 0.00 94 1020.7
20201022121549 55 125 0.0 0.0 0.00 0.01 0.00 93 1020.7
20201022121258 55 125 0.0 0.0 0.00 0.01 0.00 93 1020.7
20201022120139 55 125 0.0 0.0 0.00 0.01 0.00 93 1020.7
20201022115756 55 125 0.0 0.0 0.00 0.01 0.00 93 1020.7
20201022114257 54 125 0.0 0.0 0.00 0.01 0.00 93 1020.7
20201022112756 54 125 0.0 0.0 0.00 0.01 0.00 92 1020.7
20201022111302 55 125 0.0 0.0 0.00 0.01 0.00 92 1020.7
20201022105755 55 125 0.0 0.0 0.00 0.01 0.00 92 1020.7
20201022104255 56 125 0.0 0.0 0.00 0.01 0.00 92 1020.7
20201022102757 57 125 0.0 2.0 0.00 0.01 0.00 93 1020.7
20201022101302 57 160 0.0 4.0 0.00 0.01 0.00 93 1020.4
20201022095758 57 129 0.0 0.0 0.00 0.01 0.00 93 1020.4
20201022094605 58 129 0.0 0.0 0.00 0.01 0.00 93 1020.4
20201022094300 58 129 0.0 0.0 0.00 0.01 0.00 93 1020.4
20201022085759 57 167 3.0 6.0 0.00 0.01 0.00 93 1020.0
20201022084258 57 127 4.0 8.0 0.00 0.01 0.00 93 1020.0
20201022082845 57 138 4.0 7.0 0.00 0.01 0.00 92 1020.0
20201022082802 57 138 4.0 7.0 0.00 0.01 0.00 92 1020.0
20201022081258 59 141 4.0 7.0 0.00 0.01 0.00 93 1020.0
20201022074552 57 160 0.0 3.0 0.00 0.01 0.00 91 1020.0
20201022074258 57 160 0.0 3.0 0.00 0.01 0.00 91 1020.0
20201022072923 57 124 0.0 3.0 0.00 0.01 0.00 91 1020.4
20201022072758 57 124 0.0 3.0 0.00 0.01 0.00 91 1020.4
20201022071314 58 172 1.0 2.0 0.00 0.01 0.00 91 1020.4
20201022065758 58 338 0.0 0.0 0.00 0.01 0.00 91 1020.4
20201022064300 58 338 0.0 0.0 0.00 0.01 0.00 91 1020.4
20201022062757 59 338 0.0 0.0 0.00 0.01 0.00 91 1020.4
20201022061256 59 338 0.0 0.0 0.00 0.01 0.00 90 1020.4
20201022055758 59 338 0.0 0.0 0.00 0.01 0.00 90 1020.4
20201022054256 59 338 0.0 0.0 0.00 0.01 0.00 90 1020.4